Hauptseite
METAR-TAF:

METAR-TAF

Flughäfen :

NWS Office

Pohnpei, Mikronesien

Breite: 06-58N, Länge: 158-13E, Höhe: 39 m

Beobachtung

Neuester Wetterbericht von vor 50 Minuten, um 11:53 UTC
Wind 4 kt aus Ost
Temperatur 29°C
Luftfeuchtigkeit 79%
Luftdruck 1008 hPa
Sichtweite: 24.1 km
Aufgelockert bewölkt in der Höhe von 1800 ft
Geschlossene Wolkendecke in der Höhe von 13000 ft

METAR: PTTP 181153Z 10004KT 15SM SCT018 OVC130 29/25 A2978 RMK SLP085 8/17/ T02860251 10289 20286 52007

Zeit: 23:43 (12:43 UTC)


TAF: fehlend

Wetterbeobachtungen und Prognosen von mehr als 4000 Flughäfen (METAR und TAF Bericht).

Die verfügbaren Stationen werden durch gelbe und rote Markierungen auf der Karte dargestellt.

Führen Sie die Maus auf sie, um den Namen der Station zu sehen.

Darauf klicken, um die Beobachtung von Wetterbeobachtungen und Prognosen zu sehen.

Um die Karte zu ändern : klicken Sie auf den grünen Tasten mit einem schwarzen Kreuz Zum Vergrößern, auf den grünen Button mit einem Gedankenstrich zu verkleinern, oder auf die grünen Pfeile für benachbarte Karten.


METAR-TAF: